»·PEaware :: N707WT KBUR-KEMT

N707WT :: KBUR-KEMT

FLIGHT INFORMATION

Flight Status: Arrived
Operator: Privately registered:
United States
More flights under this callsign
Pilot: Mark B. (9455)
Aircraft: CIRRUS SR-20
(SR20)
More flights by this aircraft type
Origin: KBUR Bob Hope-Burbank
United States
Destination: KEMT El Monte
United States
More flights between these airports :: More routes between these airports
Route: +ELMOO8 ELMOO V186 PDZ
File this flight plan on PilotEdge
Remarks: ZULU wx
Altitude:
(Current/Filed)
5,000ft
Speed:
(Current/Filed)
145kts
Departed: 10-Mar-19 05:02 PM
Arrived: 10-Mar-19 05:30 PM
Distance/Time
Traveled:
18nm/0:27
Distance/Time
To Go:
Arrived

Flight Plot

Page will automatically refresh every two minutes.


Map Options




Map Legend


Flown Route
Filed Route
Departure Airport
Arrival Airport
Navaid (VOR, NDB)
Fix

Horizontal Profiles

Position Reports

Time Latitude Longitude Heading Altitude Ground
Speed
10-Mar-19 16:39 34.196342 -118.367563 358 723ft 0kts
10-Mar-19 16:40 34.196342 -118.367563 358 723ft 0kts
10-Mar-19 16:41 34.196342 -118.367563 358 723ft 0kts
10-Mar-19 16:42 34.196342 -118.367563 358 723ft 0kts
10-Mar-19 16:43 34.196342 -118.367563 358 723ft 0kts
10-Mar-19 16:44 34.196342 -118.367563 358 723ft 0kts
10-Mar-19 16:45 34.196342 -118.367563 358 723ft 0kts
10-Mar-19 16:46 34.196342 -118.367563 358 723ft 0kts
10-Mar-19 16:47 34.196342 -118.367563 358 723ft 0kts
10-Mar-19 16:48 34.196342 -118.367563 358 723ft 0kts
10-Mar-19 16:49 34.196342 -118.367563 358 723ft 0kts
10-Mar-19 16:50 34.196358 -118.367563 356 723ft 1kts
10-Mar-19 16:51 34.196892 -118.364911 90 719ft 11kts
10-Mar-19 16:53 34.196820 -118.360442 90 713ft 17kts
10-Mar-19 16:54 34.195979 -118.356950 167 703ft 14kts
10-Mar-19 16:55 34.194398 -118.356437 127 697ft 0kts
10-Mar-19 16:56 34.194398 -118.356437 127 697ft 0kts
10-Mar-19 16:57 34.194286 -118.356241 115 696ft 0kts
10-Mar-19 16:58 34.194286 -118.356241 115 696ft 0kts
10-Mar-19 16:59 34.194286 -118.356241 115 696ft 0kts
10-Mar-19 17:00 34.194286 -118.356241 115 696ft 0kts
10-Mar-19 17:01 34.194427 -118.355248 327 695ft 10kts
10-Mar-19 17:02 34.211649 -118.360552 340 1382ft 82kts
10-Mar-19 17:03 34.214484 -118.379281 178 2485ft 90kts
10-Mar-19 17:04 34.195367 -118.362052 139 3593ft 90kts
10-Mar-19 17:05 34.177773 -118.340864 121 4629ft 93kts
10-Mar-19 17:06 34.166263 -118.302161 109 4792ft 149kts
10-Mar-19 17:07 34.153472 -118.260850 110 4814ft 151kts
10-Mar-19 17:08 34.141114 -118.223670 111 4821ft 151kts
10-Mar-19 17:09 34.126887 -118.175837 110 4839ft 151kts
10-Mar-19 17:10 34.112166 -118.128063 110 4802ft 152kts
10-Mar-19 17:11 34.097624 -118.080238 105 4933ft 141kts
10-Mar-19 17:12 34.096873 -118.030424 96 4873ft 149kts
10-Mar-19 17:12 34.091584 -117.989740 101 4819ft 147kts
10-Mar-19 17:14 34.086417 -117.933617 93 4835ft 141kts
10-Mar-19 17:15 34.082822 -117.885904 96 4805ft 143kts
10-Mar-19 17:15 34.079209 -117.846660 93 4835ft 143kts
10-Mar-19 17:16 34.079035 -117.799795 86 4794ft 135kts
10-Mar-19 17:18 34.064554 -117.760195 129 4880ft 104kts
10-Mar-19 17:18 34.045856 -117.745578 194 4889ft 102kts
10-Mar-19 17:19 34.041611 -117.774703 323 4654ft 109kts
10-Mar-19 17:20 34.072373 -117.779172 345 4152ft 116kts
10-Mar-19 17:22 34.080882 -117.818099 263 3707ft 110kts
10-Mar-19 17:22 34.081321 -117.845109 268 3622ft 100kts
10-Mar-19 17:23 34.082442 -117.880969 272 3322ft 115kts
10-Mar-19 17:24 34.084085 -117.919854 272 2658ft 118kts
10-Mar-19 17:25 34.085322 -117.958209 277 1655ft 110kts
10-Mar-19 17:26 34.089897 -117.989606 289 1485ft 83kts
10-Mar-19 17:27 34.099067 -118.012433 288 1508ft 75kts
10-Mar-19 17:28 34.089705 -118.032732 203 312ft 74kts
10-Mar-19 17:29 34.083002 -118.035983 116 284ft 0kts
10-Mar-19 17:30 34.083002 -118.035983 116 284ft 0kts

Navigation Log

Ident Type
Flight plan parsing failed, navigation log unavailable